Terminal Aerodrome Forecast
Issued by NWS

Home | Current Version | Previous Version | Text Only | Print | Product List | Glossary On
Versions: 1 2 3 4 5 6 7 8 9 10 11 12 13 14 15 16 17 18 19 20 21 22 23 24 25 26 27 28 29 30 31 32 33 34
000
FTUS41 KBOX 261605 AAB
TAFFMH
TAF AMD
KFMH 261605Z 2616/2712 24011KT P6SM BKN025 BKN035
     FM261800 24012G19KT P6SM SCT035 BKN060 BKN250
     FM262300 23011KT P6SM SCT060 BKN250
     FM270900 21011KT 3SM BR BKN200=

USA.gov is the U.S. government's official web portal to all federal, state and local government web resources and services.